Halesite, New York
Current Conditions -  °F | °C
As of 4:53 PM on Sunday 21 Dec 2014 (Local Time) from KFRG Reporting Station
Overcast Overcast  
Wind Chill: 30°   Ceiling: 1400
Heat Index: 36°   Visibility: 10mi
Dew Point: 30°   Wind: 7mph
Humidity: 79%   Direction: 350°N
Pressure: 30.29"   Gusts: NA
Location:  40.8966°N, 73.4362°W
Report Text: KFRG 212153Z 35006KT 10SM OVC014 02/M01 A3029 RMK AO2 SLP257 T00221011
Loading
Personal Weather Stations






























Interactive Weather Map New forecast layout! Learn more

10-Day Weather Forecast

Advertisements
Track Severe Weather on mobile